createdAt,value
2017-10-18T00:00:03.434Z,9.00
2017-10-18T00:02:29.782Z,8.96
2017-10-18T00:04:56.050Z,8.88
2017-10-18T00:07:22.324Z,8.79
2017-10-18T00:09:48.647Z,8.75
2017-10-18T00:12:14.905Z,8.76
2017-10-18T00:14:41.183Z,8.72
2017-10-18T00:17:07.490Z,8.68
2017-10-18T00:19:33.882Z,8.61
2017-10-18T00:22:00.152Z,8.62
2017-10-18T00:24:26.491Z,8.63
2017-10-18T00:26:52.770Z,8.68
2017-10-18T00:29:19.048Z,8.73
2017-10-18T00:31:45.355Z,8.68
2017-10-18T00:34:11.623Z,8.63
2017-10-18T00:36:37.950Z,8.49
2017-10-18T00:39:04.267Z,8.63
2017-10-18T00:41:30.535Z,8.63
2017-10-18T00:43:56.820Z,8.78
2017-10-18T00:46:23.142Z,8.71
2017-10-18T00:48:49.404Z,8.66
2017-10-18T00:51:15.702Z,8.74
2017-10-18T00:53:42.046Z,8.84
2017-10-18T00:56:08.351Z,8.78
2017-10-18T00:58:34.630Z,8.79
2017-10-18T01:01:00.938Z,8.70
2017-10-18T01:03:27.239Z,8.63
2017-10-18T01:05:53.513Z,8.73
2017-10-18T01:08:19.823Z,8.73
2017-10-18T01:10:46.112Z,8.65
2017-10-18T01:13:12.387Z,8.56
2017-10-18T01:15:38.697Z,8.49
2017-10-18T01:18:04.979Z,8.45
2017-10-18T01:20:31.336Z,8.40
2017-10-18T01:22:57.665Z,8.35
2017-10-18T01:25:23.936Z,8.30
2017-10-18T01:27:50.216Z,8.32
2017-10-18T01:30:16.543Z,8.29
2017-10-18T01:32:42.823Z,8.28
2017-10-18T01:35:09.103Z,8.22
2017-10-18T01:37:35.425Z,8.22
2017-10-18T01:40:01.692Z,8.15
2017-10-18T01:42:27.974Z,8.04
2017-10-18T01:44:54.300Z,7.86
2017-10-18T01:47:20.582Z,7.80
2017-10-18T01:49:46.867Z,7.87
2017-10-18T01:52:13.206Z,8.21
2017-10-18T01:54:39.488Z,8.25
2017-10-18T01:57:05.751Z,8.30
2017-10-18T01:59:32.061Z,8.43
2017-10-18T02:01:58.346Z,8.38
2017-10-18T02:04:24.656Z,8.39
2017-10-18T02:06:50.988Z,8.42
2017-10-18T02:09:17.267Z,8.39
2017-10-18T02:11:43.546Z,8.31
2017-10-18T02:14:09.857Z,8.30
2017-10-18T02:16:36.127Z,8.45
2017-10-18T02:19:02.412Z,8.28
2017-10-18T02:21:28.717Z,8.17
2017-10-18T02:23:54.996Z,8.08
2017-10-18T02:26:21.278Z,8.03
2017-10-18T02:28:47.710Z,8.14
2017-10-18T02:31:13.987Z,8.04
2017-10-18T02:33:40.261Z,7.90
2017-10-18T02:36:06.583Z,7.85
2017-10-18T02:38:32.881Z,7.91
2017-10-18T02:40:59.150Z,7.82
2017-10-18T02:43:25.558Z,7.78
2017-10-18T02:45:51.839Z,7.78
2017-10-18T02:48:18.126Z,7.74
2017-10-18T02:50:44.413Z,7.71
2017-10-18T02:53:10.693Z,7.68
2017-10-18T02:55:36.956Z,7.66
2017-10-18T02:58:03.271Z,7.89
2017-10-18T03:00:29.554Z,8.01
2017-10-18T03:02:55.826Z,7.91
2017-10-18T03:05:22.159Z,7.86
2017-10-18T03:07:48.443Z,7.81
2017-10-18T03:10:14.747Z,8.11
2017-10-18T03:12:41.076Z,8.29
2017-10-18T03:15:07.354Z,8.15
2017-10-18T03:17:33.611Z,8.00
2017-10-18T03:19:59.942Z,7.91
2017-10-18T03:22:26.234Z,7.91
2017-10-18T03:24:52.521Z,7.93
2017-10-18T03:27:18.860Z,7.81
2017-10-18T03:29:45.143Z,7.83
2017-10-18T03:32:11.430Z,7.85
2017-10-18T03:34:37.734Z,7.85
2017-10-18T03:37:04.012Z,7.78
2017-10-18T03:39:30.275Z,7.68
2017-10-18T03:41:56.679Z,7.62
2017-10-18T03:44:22.950Z,7.65
2017-10-18T03:46:49.239Z,7.62
2017-10-18T03:49:15.556Z,7.61
2017-10-18T03:51:41.838Z,7.90
2017-10-18T03:54:08.121Z,7.82
2017-10-18T03:56:34.450Z,7.72
2017-10-18T03:59:00.713Z,7.67
2017-10-18T04:01:26.970Z,7.59
2017-10-18T04:03:53.269Z,7.57
2017-10-18T04:06:19.551Z,7.61
2017-10-18T04:08:45.826Z,7.63
2017-10-18T04:11:12.140Z,7.55
2017-10-18T04:13:38.410Z,7.45
2017-10-18T04:16:04.678Z,7.30
2017-10-18T04:18:30.997Z,7.26
2017-10-18T04:20:57.376Z,7.18
2017-10-18T04:23:23.645Z,7.12
2017-10-18T04:25:49.962Z,7.20
2017-10-18T04:28:16.239Z,7.17
2017-10-18T04:30:42.499Z,7.20
2017-10-18T04:33:08.831Z,7.23
2017-10-18T04:35:35.113Z,7.16
2017-10-18T04:38:01.380Z,7.22
2017-10-18T04:40:27.689Z,7.21
2017-10-18T04:42:53.961Z,7.21
2017-10-18T04:45:20.248Z,7.30
2017-10-18T04:47:46.575Z,7.42
2017-10-18T04:50:12.851Z,7.44
2017-10-18T04:52:39.125Z,7.58
2017-10-18T04:55:05.423Z,7.61
2017-10-18T04:57:31.691Z,8.05
2017-10-18T04:59:57.955Z,8.71
2017-10-18T05:02:24.257Z,9.59
2017-10-18T05:04:50.522Z,10.59
2017-10-18T05:07:16.817Z,11.60
2017-10-18T05:09:43.124Z,12.45
2017-10-18T05:12:09.400Z,13.25
2017-10-18T05:14:35.677Z,13.82
2017-10-18T05:17:01.975Z,14.36
2017-10-18T05:19:28.235Z,14.77
2017-10-18T05:21:54.512Z,15.11
2017-10-18T05:24:20.806Z,15.44
2017-10-18T05:26:47.083Z,16.34
2017-10-18T05:29:13.346Z,16.34
2017-10-18T05:31:39.607Z,17.01
2017-10-18T05:34:05.864Z,17.46
2017-10-18T05:36:32.143Z,18.05
2017-10-18T05:38:58.411Z,18.18
2017-10-18T05:41:24.689Z,18.04
2017-10-18T05:43:50.947Z,18.78
2017-10-18T05:46:17.343Z,19.08
2017-10-18T05:48:43.623Z,19.88
2017-10-18T05:51:09.889Z,19.97
2017-10-18T05:53:36.169Z,20.16
2017-10-18T05:56:02.431Z,20.74
2017-10-18T05:58:28.706Z,21.15
2017-10-18T06:00:54.976Z,20.80
2017-10-18T06:03:21.247Z,21.11
2017-10-18T06:05:47.526Z,21.08
2017-10-18T06:08:13.804Z,21.59
2017-10-18T06:10:40.111Z,21.65
2017-10-18T06:13:06.392Z,22.87
2017-10-18T06:15:32.703Z,22.82
2017-10-18T06:17:58.978Z,22.84
2017-10-18T06:20:25.248Z,23.14
2017-10-18T06:22:51.574Z,23.49
2017-10-18T06:25:17.845Z,23.64
2017-10-18T06:27:44.118Z,24.39
2017-10-18T06:30:10.415Z,24.35
2017-10-18T06:32:36.689Z,24.42
2017-10-18T06:35:02.960Z,24.62
2017-10-18T06:37:29.239Z,24.66
2017-10-18T06:39:55.504Z,24.38
2017-10-18T06:42:21.794Z,24.14
2017-10-18T06:44:48.065Z,24.55
2017-10-18T06:47:14.344Z,23.89
2017-10-18T06:49:40.602Z,23.96
2017-10-18T06:52:06.877Z,23.55
2017-10-18T06:54:33.150Z,24.00
2017-10-18T06:56:59.419Z,23.54
2017-10-18T06:59:25.692Z,23.54
2017-10-18T07:01:52.001Z,23.91
2017-10-18T07:04:18.282Z,24.01
2017-10-18T07:06:44.546Z,24.13
2017-10-18T07:09:10.824Z,24.26
2017-10-18T07:11:37.099Z,24.42
2017-10-18T07:14:03.387Z,25.19
2017-10-18T07:16:29.655Z,25.40
2017-10-18T07:18:55.934Z,25.54
2017-10-18T07:21:22.216Z,25.49
2017-10-18T07:23:48.473Z,25.60
2017-10-18T07:26:14.782Z,25.82
2017-10-18T07:28:41.073Z,26.34
2017-10-18T07:31:07.366Z,26.95
2017-10-18T07:33:33.690Z,26.97
2017-10-18T07:35:59.971Z,27.35
2017-10-18T07:38:26.257Z,27.32
2017-10-18T07:40:52.629Z,27.15
2017-10-18T07:43:18.906Z,26.91
2017-10-18T07:45:45.288Z,27.50
2017-10-18T07:48:11.584Z,26.77
2017-10-18T07:50:37.851Z,26.80
2017-10-18T07:53:04.111Z,27.43
2017-10-18T07:55:30.404Z,28.39
2017-10-18T07:57:56.673Z,29.16
2017-10-18T08:00:22.950Z,29.73
2017-10-18T08:02:49.221Z,30.03
2017-10-18T08:05:15.490Z,30.51
2017-10-18T08:07:41.764Z,30.06
2017-10-18T08:10:08.023Z,30.20
2017-10-18T08:12:34.286Z,30.15
2017-10-18T08:15:00.544Z,30.00
2017-10-18T08:17:26.816Z,30.18
2017-10-18T08:19:53.109Z,30.91
2017-10-18T08:22:19.381Z,31.15
2017-10-18T08:24:45.739Z,30.93
2017-10-18T08:27:12.015Z,31.29
2017-10-18T08:29:38.306Z,31.57
2017-10-18T08:32:04.568Z,31.42
2017-10-18T08:34:30.872Z,31.03
2017-10-18T08:36:57.135Z,31.46
2017-10-18T08:39:23.541Z,31.91
2017-10-18T08:41:49.866Z,32.44
2017-10-18T08:44:16.129Z,32.88
2017-10-18T08:46:42.379Z,33.06
2017-10-18T08:49:09.884Z,33.14
2017-10-18T08:51:35.013Z,33.34
2017-10-18T08:54:01.271Z,33.31
2017-10-18T08:56:27.534Z,33.76
2017-10-18T08:58:53.791Z,33.38
2017-10-18T09:01:20.118Z,33.28
2017-10-18T09:03:46.392Z,33.51
2017-10-18T09:06:12.666Z,32.38
2017-10-18T09:08:38.979Z,33.13
2017-10-18T09:11:05.241Z,33.53
2017-10-18T09:13:31.580Z,34.34
2017-10-18T09:15:57.986Z,34.72
2017-10-18T09:18:24.266Z,35.15
2017-10-18T09:20:50.564Z,35.69
2017-10-18T09:23:16.822Z,35.46
2017-10-18T09:25:43.102Z,36.25
2017-10-18T09:28:09.369Z,36.79
2017-10-18T09:30:35.693Z,36.91
2017-10-18T09:33:02.144Z,36.18
2017-10-18T09:35:28.417Z,35.70
2017-10-18T09:37:54.692Z,35.57
2017-10-18T09:40:20.972Z,36.81
2017-10-18T09:42:47.328Z,36.65
2017-10-18T09:45:13.621Z,36.54
2017-10-18T09:47:39.886Z,36.92
2017-10-18T09:50:06.144Z,37.64
2017-10-18T09:52:32.399Z,37.80
2017-10-18T09:54:58.678Z,37.45
2017-10-18T09:57:24.934Z,37.20
2017-10-18T09:59:51.241Z,36.78
2017-10-18T10:02:17.512Z,37.50
2017-10-18T10:04:43.821Z,38.40
2017-10-18T10:07:10.074Z,38.75
2017-10-18T10:09:36.349Z,38.66
2017-10-18T10:12:02.695Z,38.85
2017-10-18T10:14:28.958Z,38.65
2017-10-18T10:16:55.232Z,38.64
2017-10-18T10:19:21.565Z,38.91
2017-10-18T10:21:47.830Z,39.14
2017-10-18T10:24:14.145Z,39.59
2017-10-18T10:26:40.415Z,39.52
2017-10-18T10:29:06.695Z,39.08
2017-10-18T10:31:32.955Z,38.91
2017-10-18T10:33:59.206Z,38.72
2017-10-18T10:36:25.621Z,39.54
2017-10-18T10:38:51.901Z,39.79
2017-10-18T10:41:18.189Z,41.23
2017-10-18T10:43:44.599Z,40.81
2017-10-18T10:46:10.873Z,40.12
2017-10-18T10:48:37.166Z,39.34
2017-10-18T10:51:03.441Z,39.40
2017-10-18T10:53:29.702Z,39.29
2017-10-18T10:55:56.013Z,40.05
2017-10-18T10:58:22.326Z,41.12
2017-10-18T11:00:48.580Z,40.05
2017-10-18T11:03:14.892Z,40.66
2017-10-18T11:05:41.167Z,41.35
2017-10-18T11:08:07.434Z,39.48
2017-10-18T11:10:33.813Z,39.43
2017-10-18T11:13:00.091Z,37.48
2017-10-18T11:15:26.403Z,36.42
2017-10-18T11:17:52.673Z,37.11
2017-10-18T11:20:18.931Z,37.27
2017-10-18T11:22:45.178Z,37.11
2017-10-18T11:25:11.426Z,36.99
2017-10-18T11:27:37.699Z,38.02
2017-10-18T11:30:04.033Z,38.39
2017-10-18T11:32:30.296Z,37.96
2017-10-18T11:34:56.561Z,38.01
2017-10-18T11:37:22.817Z,36.78
2017-10-18T11:39:49.121Z,37.07
2017-10-18T11:42:15.376Z,37.58
2017-10-18T11:44:41.639Z,38.84
2017-10-18T11:47:07.914Z,38.84
2017-10-18T11:49:34.172Z,39.65
2017-10-18T11:52:00.508Z,40.15
2017-10-18T11:54:26.944Z,39.35
2017-10-18T11:56:53.212Z,37.90
2017-10-18T11:59:19.471Z,37.28
2017-10-18T12:01:45.828Z,36.54
2017-10-18T12:04:12.139Z,37.26
2017-10-18T12:06:38.401Z,38.05
2017-10-18T12:09:04.653Z,38.35
2017-10-18T12:11:30.976Z,37.71
2017-10-18T12:13:57.228Z,38.02
2017-10-18T12:16:23.533Z,37.80
2017-10-18T12:18:49.788Z,39.10
2017-10-18T12:21:16.040Z,39.85
2017-10-18T12:23:42.296Z,40.02
2017-10-18T12:26:08.554Z,39.98
2017-10-18T12:28:34.855Z,39.62
2017-10-18T12:31:01.119Z,40.04
2017-10-18T12:33:27.657Z,40.04
2017-10-18T12:35:54.257Z,40.42
2017-10-18T12:38:20.690Z,40.42
2017-10-18T12:40:47.107Z,40.35
2017-10-18T12:43:13.374Z,40.38
2017-10-18T12:45:39.647Z,40.13
2017-10-18T12:48:05.947Z,39.55
2017-10-18T12:50:32.223Z,38.62
2017-10-18T12:52:58.529Z,39.06
2017-10-18T12:55:24.789Z,39.10
2017-10-18T12:57:51.039Z,39.57
2017-10-18T13:00:17.344Z,40.19
2017-10-18T13:02:43.785Z,39.75
2017-10-18T13:05:10.258Z,39.19
2017-10-18T13:07:36.539Z,38.35
2017-10-18T13:10:02.835Z,38.66
2017-10-18T13:12:29.124Z,38.79
2017-10-18T13:14:55.485Z,38.05
2017-10-18T13:17:21.793Z,36.40
2017-10-18T13:19:48.065Z,35.52
2017-10-18T13:22:14.359Z,35.36
2017-10-18T13:24:40.655Z,35.61
2017-10-18T13:27:06.947Z,34.73
2017-10-18T13:29:33.247Z,33.84
2017-10-18T13:31:59.498Z,32.98
2017-10-18T13:34:25.805Z,32.28
2017-10-18T13:36:52.069Z,31.87
2017-10-18T13:39:18.314Z,31.46
2017-10-18T13:41:44.686Z,31.20
2017-10-18T13:44:10.939Z,30.94
2017-10-18T13:46:37.204Z,30.59
2017-10-18T13:49:03.468Z,30.15
2017-10-18T13:51:29.767Z,29.99
2017-10-18T13:53:56.192Z,29.86
2017-10-18T13:56:22.442Z,29.74
2017-10-18T13:58:48.732Z,29.57
2017-10-18T14:01:15.019Z,29.34
2017-10-18T14:03:41.284Z,29.11
2017-10-18T14:06:07.543Z,28.79
2017-10-18T14:08:33.823Z,28.42
2017-10-18T14:11:00.129Z,28.14
2017-10-18T14:13:26.380Z,27.96
2017-10-18T14:15:52.641Z,27.78
2017-10-18T14:18:18.920Z,27.56
2017-10-18T14:20:45.161Z,27.31
2017-10-18T14:23:11.443Z,27.01
2017-10-18T14:25:37.730Z,26.91
2017-10-18T14:28:04.003Z,26.75
2017-10-18T14:30:30.276Z,26.54
2017-10-18T14:32:56.543Z,26.33
2017-10-18T14:35:22.839Z,26.13
2017-10-18T14:37:49.133Z,25.92
2017-10-18T14:40:15.426Z,25.74
2017-10-18T14:42:41.824Z,25.54
2017-10-18T14:45:08.091Z,25.34
2017-10-18T14:47:34.607Z,25.10
2017-10-18T14:50:01.140Z,24.84
2017-10-18T14:52:28.226Z,24.58
2017-10-18T14:54:54.891Z,24.35
2017-10-18T14:57:21.897Z,24.12
2017-10-18T14:59:48.916Z,23.81
2017-10-18T15:02:15.273Z,23.49
2017-10-18T15:04:42.061Z,23.17
2017-10-18T15:07:08.701Z,22.78
2017-10-18T15:09:35.055Z,22.32
2017-10-18T15:12:01.320Z,22.24
2017-10-18T15:14:27.608Z,21.93
2017-10-18T15:16:53.868Z,21.84
2017-10-18T15:19:20.123Z,21.68
2017-10-18T15:21:46.398Z,21.43
2017-10-18T15:24:12.668Z,21.27
2017-10-18T15:26:38.923Z,21.05
2017-10-18T15:29:05.193Z,20.77
2017-10-18T15:31:31.505Z,20.58
2017-10-18T15:33:57.768Z,20.57
2017-10-18T15:36:24.015Z,20.43
2017-10-18T15:38:50.274Z,20.22
2017-10-18T15:41:16.515Z,20.06
2017-10-18T15:43:42.763Z,19.92
2017-10-18T15:46:09.024Z,19.79
2017-10-18T15:48:35.281Z,19.63
2017-10-18T15:51:01.599Z,19.49
2017-10-18T15:53:27.866Z,19.32
2017-10-18T15:58:26.650Z,19.04
2017-10-18T16:00:52.912Z,19.00
2017-10-18T16:03:19.169Z,18.92
2017-10-18T16:05:45.416Z,18.76
2017-10-18T16:08:11.748Z,18.75
2017-10-18T16:10:37.994Z,18.77
2017-10-18T16:13:04.300Z,18.75
2017-10-18T16:15:30.598Z,18.69
2017-10-18T16:17:56.853Z,18.60
2017-10-18T16:20:23.109Z,18.42
2017-10-18T16:22:49.356Z,18.33
2017-10-18T16:25:15.612Z,18.20
2017-10-18T16:27:41.884Z,18.03
2017-10-18T16:30:08.181Z,18.00
2017-10-18T16:32:34.453Z,17.88
2017-10-18T16:35:00.723Z,17.73
2017-10-18T16:37:27.004Z,17.65
2017-10-18T16:39:53.290Z,17.62
2017-10-18T16:42:19.564Z,17.47
2017-10-18T16:44:45.821Z,17.45
2017-10-18T16:47:12.070Z,17.31
2017-10-18T16:49:38.336Z,17.14
2017-10-18T16:52:04.617Z,16.95
2017-10-18T16:54:30.891Z,16.91
2017-10-18T16:56:57.168Z,16.84
2017-10-18T16:59:23.436Z,16.74
2017-10-18T17:01:49.728Z,16.70
2017-10-18T17:04:16.008Z,16.68
2017-10-18T17:06:42.291Z,16.62
2017-10-18T17:09:08.589Z,16.63
2017-10-18T17:11:34.876Z,16.56
2017-10-18T17:14:01.143Z,16.55
2017-10-18T17:16:27.413Z,16.39
2017-10-18T17:18:53.693Z,16.39
2017-10-18T17:21:19.990Z,16.39
2017-10-18T17:23:46.238Z,16.39
2017-10-18T17:26:12.665Z,16.36
2017-10-18T17:28:38.930Z,16.31
2017-10-18T17:31:05.275Z,16.20
2017-10-18T17:33:31.537Z,16.17
2017-10-18T17:35:57.990Z,15.90
2017-10-18T17:38:24.248Z,15.85
2017-10-18T17:40:50.520Z,15.76
2017-10-18T17:43:16.758Z,15.69
2017-10-18T17:45:43.009Z,15.64
2017-10-18T17:48:09.271Z,15.62
2017-10-18T17:50:35.548Z,15.51
2017-10-18T17:53:01.780Z,15.48
2017-10-18T17:55:28.046Z,15.29
2017-10-18T17:57:54.339Z,15.25
2017-10-18T18:00:20.634Z,15.22
2017-10-18T18:02:46.879Z,15.09
2017-10-18T18:05:13.149Z,14.96
2017-10-18T18:07:39.433Z,14.91
2017-10-18T18:10:06.150Z,14.97
2017-10-18T18:12:32.533Z,14.87
2017-10-18T18:14:58.842Z,14.78
2017-10-18T18:17:25.107Z,14.78
2017-10-18T18:19:51.379Z,14.83
2017-10-18T18:22:17.624Z,14.73
2017-10-18T18:24:44.048Z,14.62
2017-10-18T18:27:10.311Z,14.53
2017-10-18T18:29:36.544Z,14.54
2017-10-18T18:32:02.824Z,14.49
2017-10-18T18:34:29.158Z,14.48
2017-10-18T18:36:55.428Z,14.40
2017-10-18T18:39:21.700Z,14.23
2017-10-18T18:41:47.986Z,14.31
2017-10-18T18:44:14.248Z,14.26
2017-10-18T18:46:40.514Z,14.24
2017-10-18T18:49:06.781Z,14.19
2017-10-18T18:51:33.048Z,14.22
2017-10-18T18:53:59.328Z,14.18
2017-10-18T18:56:25.586Z,14.13
2017-10-18T18:58:51.854Z,14.10
2017-10-18T19:01:18.122Z,13.94
2017-10-18T19:03:44.384Z,13.90
2017-10-18T19:06:10.637Z,13.74
2017-10-18T19:08:36.884Z,13.70
2017-10-18T19:11:03.263Z,13.54
2017-10-18T19:13:29.526Z,13.51
2017-10-18T19:15:55.808Z,13.42
2017-10-18T19:18:22.175Z,13.38
2017-10-18T19:20:48.425Z,13.32
2017-10-18T19:23:14.685Z,13.35
2017-10-18T19:25:41.079Z,13.24
2017-10-18T19:28:07.359Z,13.20
2017-10-18T19:30:33.649Z,13.16
2017-10-18T19:33:00.036Z,13.17
2017-10-18T19:35:26.308Z,13.00
2017-10-18T19:37:52.609Z,12.97
2017-10-18T19:40:18.851Z,12.89
2017-10-18T19:42:45.141Z,12.88
2017-10-18T19:45:11.525Z,12.87
2017-10-18T19:47:37.829Z,12.73
2017-10-18T19:50:04.092Z,12.68
2017-10-18T19:52:30.387Z,12.58
2017-10-18T19:54:56.645Z,12.61
2017-10-18T19:57:22.908Z,12.58
2017-10-18T19:59:52.447Z,12.61
2017-10-18T20:02:18.865Z,12.52
2017-10-18T20:04:45.160Z,12.53
2017-10-18T20:07:12.704Z,12.44
2017-10-18T20:09:39.093Z,12.49
2017-10-18T20:12:05.380Z,12.46
2017-10-18T20:14:31.624Z,12.42
2017-10-18T20:16:57.884Z,12.43
2017-10-18T20:19:24.144Z,12.34
2017-10-18T20:21:50.432Z,12.31
2017-10-18T20:24:17.909Z,12.31
2017-10-18T20:26:44.179Z,12.26
2017-10-18T20:29:10.481Z,12.18
2017-10-18T20:31:36.727Z,12.14
2017-10-18T20:34:03.039Z,12.09
2017-10-18T20:36:29.297Z,12.11
2017-10-18T20:38:55.567Z,12.05
2017-10-18T20:41:21.834Z,11.90
2017-10-18T20:43:48.321Z,11.76
2017-10-18T20:46:14.617Z,11.74
2017-10-18T20:48:40.873Z,11.71
2017-10-18T20:51:07.159Z,11.63
2017-10-18T20:53:33.416Z,11.56
2017-10-18T20:55:59.703Z,11.53
2017-10-18T20:58:25.942Z,11.54
2017-10-18T21:00:52.197Z,11.48
2017-10-18T21:03:18.446Z,11.48
2017-10-18T21:05:44.711Z,11.55
2017-10-18T21:08:10.981Z,11.48
2017-10-18T21:10:37.313Z,11.46
2017-10-18T21:13:03.565Z,11.38
2017-10-18T21:15:29.871Z,11.29
2017-10-18T21:17:56.141Z,11.26
2017-10-18T21:20:22.477Z,11.10
2017-10-18T21:22:48.750Z,11.11
2017-10-18T21:25:15.015Z,11.02
2017-10-18T21:27:41.319Z,10.94
2017-10-18T21:30:07.669Z,10.90
2017-10-18T21:32:33.969Z,11.00
2017-10-18T21:35:00.271Z,10.93
2017-10-18T21:37:26.534Z,10.92
2017-10-18T21:39:52.801Z,10.86
2017-10-18T21:42:19.042Z,10.91
2017-10-18T21:44:45.357Z,10.95
2017-10-18T21:47:11.604Z,10.95
2017-10-18T21:49:37.864Z,10.90
2017-10-18T21:52:04.219Z,10.89
2017-10-18T21:54:30.494Z,10.87
2017-10-18T21:56:56.746Z,10.79
2017-10-18T21:59:23.009Z,10.80
2017-10-18T22:01:49.275Z,10.85
2017-10-18T22:04:15.539Z,10.77
2017-10-18T22:06:41.814Z,10.68
2017-10-18T22:09:08.084Z,10.59
2017-10-18T22:11:34.341Z,10.55
2017-10-18T22:14:00.639Z,10.52
2017-10-18T22:16:26.921Z,10.56
2017-10-18T22:18:53.188Z,10.42
2017-10-18T22:21:19.469Z,10.29
2017-10-18T22:23:45.744Z,10.38
2017-10-18T22:26:12.322Z,10.36
2017-10-18T22:28:38.611Z,10.42
2017-10-18T22:31:04.894Z,10.42
2017-10-18T22:33:31.186Z,10.45
2017-10-18T22:35:57.436Z,10.32
2017-10-18T22:38:23.694Z,10.16
2017-10-18T22:40:50.014Z,10.15
2017-10-18T22:43:16.311Z,10.09
2017-10-18T22:45:42.609Z,9.99
2017-10-18T22:48:08.951Z,9.96
2017-10-18T22:50:35.220Z,9.85
2017-10-18T22:53:01.488Z,9.87
2017-10-18T22:55:27.762Z,10.05
2017-10-18T22:57:54.042Z,10.08
2017-10-18T23:00:20.308Z,10.10
2017-10-18T23:02:46.565Z,9.93
2017-10-18T23:05:12.860Z,9.88
2017-10-18T23:07:39.142Z,9.84
2017-10-18T23:10:05.429Z,9.81
2017-10-18T23:12:31.737Z,9.67
2017-10-18T23:14:57.975Z,9.67
2017-10-18T23:17:24.230Z,9.66
2017-10-18T23:19:50.500Z,9.57
2017-10-18T23:22:16.907Z,9.50
2017-10-18T23:24:43.340Z,9.47
2017-10-18T23:27:09.615Z,9.43
2017-10-18T23:29:35.878Z,9.42
2017-10-18T23:32:02.170Z,9.37
2017-10-18T23:34:28.472Z,9.38
2017-10-18T23:36:54.727Z,9.35
2017-10-18T23:39:20.997Z,9.24
2017-10-18T23:41:47.236Z,9.23
2017-10-18T23:44:13.520Z,9.19
2017-10-18T23:46:39.755Z,9.09
2017-10-18T23:49:06.036Z,9.10
2017-10-18T23:51:32.298Z,9.02
2017-10-18T23:53:58.601Z,8.95
2017-10-18T23:56:24.861Z,8.97
2017-10-18T23:58:51.128Z,8.96
